Time;durP1;ratioP1;P1;durP2;ratioP2;P2;SDS_P1;SDS_P2;PMS_P1;PMS_P2;Temp;Humidity;BMP_temperature;BMP_pressure;BME280_temperature;BME280_humidity;BME280_pressure;Samples;Min_cycle;Max_cycle;Signal;HPM_P1;HPM_P2
2021/09/21 00:01:20;;;;;;;5.78;3.90;;;12.00;99.90;;;12.86;77.50;101546.16;6188248;23;20039;-88
2021/09/21 00:03:46;;;;;;;6.35;3.60;;;12.00;99.90;;;12.78;78.33;101541.50;6213667;23;20004;-88
2021/09/21 00:06:13;;;;;;;5.50;3.60;;;11.80;99.90;;;12.63;78.39;101534.63;6189027;23;20016;-90
2021/09/21 00:08:38;;;;;;;6.28;3.97;;;11.70;99.90;;;12.55;79.37;101551.56;6188281;23;20005;-88
2021/09/21 00:11:07;;;;;;;5.53;4.03;;;11.60;99.90;;;12.40;79.62;101538.22;6188536;23;20091;-90
2021/09/21 00:13:34;;;;;;;7.57;4.45;;;11.50;99.90;;;12.31;80.47;101559.94;6212969;23;20017;-88
2021/09/21 00:16:02;;;;;;;6.10;4.10;;;11.30;99.90;;;12.13;80.94;101557.34;6213451;23;20004;-86
2021/09/21 00:18:28;;;;;;;8.75;4.80;;;11.20;99.90;;;12.07;82.30;101578.31;6213486;23;20004;-88
2021/09/21 00:20:54;;;;;;;9.00;4.50;;;11.20;99.90;;;12.01;82.51;101581.69;6188037;23;20079;-89
2021/09/21 00:23:20;;;;;;;5.90;4.38;;;11.10;99.90;;;12.06;82.79;101587.06;6188385;23;20009;-90
2021/09/21 00:25:46;;;;;;;7.57;4.20;;;11.10;99.90;;;12.03;82.83;101582.16;6188452;23;20005;-89
2021/09/21 00:28:15;;;;;;;9.00;4.25;;;11.10;99.90;;;12.08;82.98;101573.53;6213453;23;20009;-92
2021/09/21 00:30:49;;;;;;;8.85;4.30;;;11.10;99.90;;;12.06;82.56;101579.50;6213493;23;20407;-88
2021/09/21 00:33:20;;;;;;;6.43;4.35;;;11.10;99.90;;;12.03;82.78;101590.56;6188914;23;20066;-90
2021/09/21 00:35:52;;;;;;;7.20;3.85;;;11.10;99.90;;;12.00;83.57;101592.09;6188136;23;20005;-89
2021/09/21 00:38:22;;;;;;;8.30;4.45;;;11.00;99.90;;;11.97;83.72;101581.56;6213828;23;20039;-89
2021/09/21 00:40:50;;;;;;;5.93;3.97;;;11.00;99.90;;;11.93;84.26;101586.22;6188075;23;20001;-87
2021/09/21 00:43:23;;;;;;;7.40;4.32;;;11.00;99.90;;;11.88;84.47;101586.41;6189222;23;20012;-90
2021/09/21 00:45:52;;;;;;;6.00;4.22;;;11.00;99.90;;;11.86;84.46;101583.16;6190072;23;20095;-88
2021/09/21 00:48:20;;;;;;;8.10;4.57;;;10.90;99.90;;;11.84;84.61;101587.47;6226777;22;20012;-83
2021/09/21 00:50:49;;;;;;;8.38;4.22;;;10.90;99.90;;;11.78;85.18;101583.25;6235912;23;20012;-84
2021/09/21 00:53:17;;;;;;;6.82;4.20;;;10.80;99.90;;;11.72;85.59;101588.22;6218126;23;20004;-88
2021/09/21 00:55:45;;;;;;;7.70;4.57;;;10.80;99.90;;;11.68;85.64;101592.03;6212861;23;20441;-88
2021/09/21 00:58:13;;;;;;;7.60;4.25;;;10.70;99.90;;;11.54;86.36;101573.53;6189242;23;20066;-88
2021/09/21 01:00:39;;;;;;;8.68;4.40;;;10.70;99.90;;;11.49;86.99;101587.72;6188126;23;20011;-87
2021/09/21 01:03:05;;;;;;;6.63;3.78;;;10.60;99.90;;;11.48;87.92;101591.69;6213192;23;20009;-88
2021/09/21 01:05:36;;;;;;;6.95;4.57;;;10.50;99.90;;;11.39;87.99;101576.97;6188492;23;20016;-88
2021/09/21 01:08:03;;;;;;;7.05;4.50;;;10.40;99.90;;;11.36;88.42;101586.03;6188326;23;20020;-87
2021/09/21 01:10:31;;;;;;;5.72;4.35;;;10.50;99.90;;;11.31;88.28;101589.03;6188733;23;20009;-88
2021/09/21 01:12:58;;;;;;;8.95;4.70;;;10.40;99.90;;;11.26;89.42;101594.00;6189991;23;20047;-88
2021/09/21 01:15:26;;;;;;;7.68;4.90;;;10.40;99.90;;;11.23;89.18;101589.94;6215019;23;20016;-85
2021/09/21 01:17:56;;;;;;;9.35;4.97;;;10.40;99.90;;;11.19;89.66;101582.53;6190227;23;20012;-86
2021/09/21 01:20:23;;;;;;;6.95;4.63;;;10.30;99.90;;;11.16;89.66;101584.03;6189947;23;20020;-90
2021/09/21 01:22:49;;;;;;;7.82;5.03;;;10.30;99.90;;;11.10;90.30;101577.03;6214579;23;20069;-88
2021/09/21 01:25:17;;;;;;;7.50;5.20;;;10.20;99.90;;;11.04;90.50;101584.75;6215870;23;20378;-89
2021/09/21 01:27:43;;;;;;;7.57;4.97;;;10.20;99.90;;;10.93;91.04;101577.13;6189909;23;20435;-87
2021/09/21 01:30:13;;;;;;;6.97;4.50;;;10.00;99.90;;;10.86;91.58;101582.41;6190930;23;20012;-88
2021/09/21 01:32:40;;;;;;;8.15;4.93;;;10.00;99.90;;;10.81;92.29;101574.25;6215787;23;20439;-88
2021/09/21 01:35:08;;;;;;;9.20;5.35;;;9.90;99.90;;;10.76;93.05;101580.00;6216668;23;20012;-88
2021/09/21 01:37:34;;;;;;;6.95;4.20;;;9.90;99.90;;;10.63;92.95;101572.69;6217389;23;20009;-86
2021/09/21 01:40:00;;;;;;;7.60;4.57;;;9.70;99.90;;;10.47;93.05;101573.25;6217368;23;20036;-88
2021/09/21 01:42:28;;;;;;;6.85;5.20;;;9.60;99.90;;;10.42;93.69;101575.41;6191657;23;20482;-89
2021/09/21 01:44:54;;;;;;;7.90;5.53;;;9.50;99.90;;;10.32;94.17;101576.59;6193192;23;20012;-89
2021/09/21 01:47:22;;;;;;;9.60;5.38;;;9.60;99.90;;;10.27;94.78;101578.75;6192274;23;20005;-88
2021/09/21 01:52:21;;;;;;;8.07;5.32;;;9.30;99.90;;;10.08;95.70;101573.53;6222220;23;20431;-88
2021/09/21 01:55:09;;;;;;;12.10;4.93;;;9.20;99.90;;;9.96;96.14;101577.00;6216804;23;20087;-89
2021/09/21 02:00:20;;;;;;;6.07;4.50;;;9.10;99.90;;;9.75;96.95;101590.00;6219005;23;20054;-88
2021/09/21 02:02:46;;;;;;;11.35;5.28;;;8.90;99.90;;;9.62;97.51;101596.59;6193204;23;20013;-89
2021/09/21 02:05:12;;;;;;;8.63;5.95;;;8.80;99.90;;;9.56;98.21;101597.91;6217935;23;20005;-87
2021/09/21 02:07:39;;;;;;;8.60;5.10;;;8.80;99.90;;;9.44;97.70;101592.13;6218045;23;20000;-88
2021/09/21 02:10:07;;;;;;;7.97;5.00;;;8.70;99.90;;;9.29;98.55;101593.44;6193733;23;20012;-89
2021/09/21 02:12:33;;;;;;;8.40;4.72;;;8.50;99.90;;;9.25;98.97;101597.19;6194554;23;20015;-90
2021/09/21 02:15:00;;;;;;;7.63;5.40;;;8.40;99.90;;;9.19;99.41;101590.16;6219066;23;20009;-87
2021/09/21 02:17:28;;;;;;;8.80;5.32;;;8.40;99.90;;;9.17;99.70;101584.09;6219585;23;20012;-89
2021/09/21 02:19:54;;;;;;;8.27;5.78;;;8.40;99.90;;;9.16;100.00;101585.22;6220448;23;20100;-90
2021/09/21 02:22:20;;;;;;;8.70;5.53;;;8.40;99.90;;;9.12;100.00;101579.47;6220152;23;20009;-85
2021/09/21 02:24:46;;;;;;;10.18;5.60;;;8.30;99.90;;;9.07;100.00;101598.34;6195101;23;20011;-87
2021/09/21 02:27:14;;;;;;;10.65;5.55;;;8.20;99.90;;;8.99;100.00;101598.00;6199757;23;20000;-89
2021/09/21 02:29:40;;;;;;;11.85;5.43;;;8.20;99.90;;;8.96;100.00;101592.25;6200706;23;20004;-87
2021/09/21 02:32:06;;;;;;;7.90;5.18;;;8.20;99.90;;;8.88;100.00;101587.47;6196339;23;20404;-89
2021/09/21 02:34:32;;;;;;;11.75;6.07;;;8.20;99.90;;;8.86;100.00;101593.38;6196762;23;20028;-89
2021/09/21 02:36:58;;;;;;;10.35;5.75;;;8.10;99.90;;;8.84;100.00;101592.88;6196829;23;20132;-87
2021/09/21 02:39:24;;;;;;;9.07;5.00;;;8.10;99.90;;;8.79;100.00;101575.50;6198297;23;20036;-91
2021/09/21 02:41:50;;;;;;;11.60;6.55;;;8.10;99.90;;;8.78;100.00;101577.47;6221434;23;20013;-89
2021/09/21 02:44:15;;;;;;;8.98;5.20;;;8.00;99.90;;;8.77;100.00;101589.75;6221260;23;20005;-88
2021/09/21 02:46:41;;;;;;;9.27;6.28;;;8.00;99.90;;;8.74;100.00;101587.59;6222092;23;20400;-88
2021/09/21 02:49:07;;;;;;;11.93;5.88;;;8.00;99.90;;;8.62;100.00;101576.28;6222309;23;20004;-88
2021/09/21 02:51:33;;;;;;;9.88;6.20;;;7.90;99.90;;;8.57;100.00;101582.00;6222875;23;20009;-89
2021/09/21 02:53:59;;;;;;;10.93;6.60;;;7.80;99.90;;;8.53;100.00;101583.78;6198913;23;20005;-88
2021/09/21 02:56:25;;;;;;;11.10;6.25;;;7.80;99.90;;;8.55;100.00;101580.66;6198992;23;20012;-90
2021/09/21 02:58:51;;;;;;;8.80;6.03;;;7.80;99.90;;;8.50;100.00;101594.72;6199652;23;20008;-88
2021/09/21 03:01:19;;;;;;;7.50;5.32;;;7.80;99.90;;;8.44;100.00;101599.63;6224013;23;20004;-90
2021/09/21 03:03:50;;;;;;;11.45;5.78;;;7.70;99.90;;;8.39;100.00;101599.75;6200249;23;20039;-88
2021/09/21 03:06:23;;;;;;;15.95;6.57;;;7.60;99.90;;;8.35;100.00;101587.59;6210960;22;20016;-86
2021/09/21 03:08:49;;;;;;;10.48;5.72;;;7.60;99.90;;;8.30;100.00;101584.97;6241157;22;20056;-89
2021/09/21 03:11:20;;;;;;;13.93;6.70;;;7.50;99.90;;;8.31;100.00;101587.47;6227557;23;20031;-87
2021/09/21 03:17:07;;;;;;;10.90;6.20;;;7.60;99.90;;;8.29;100.00;101584.16;6202144;23;20012;-88
2021/09/21 03:19:27;;;;;;;10.10;6.22;;;7.60;99.90;;;8.34;100.00;101588.78;6231963;23;20016;-87
2021/09/21 03:21:54;;;;;;;9.75;6.40;;;7.60;99.90;;;8.38;100.00;101598.13;6232574;23;20008;-86
2021/09/21 03:24:21;;;;;;;8.27;5.95;;;7.60;99.90;;;8.36;100.00;101601.22;6229199;23;20072;-88
2021/09/21 03:26:47;;;;;;;11.85;6.35;;;7.60;99.90;;;8.35;100.00;101615.44;6204261;23;20009;-89
2021/09/21 03:29:13;;;;;;;9.55;6.03;;;7.50;99.90;;;8.33;100.00;101624.13;6231305;23;20005;-88
2021/09/21 03:31:39;;;;;;;11.23;6.20;;;7.50;99.90;;;8.27;100.00;101617.03;6204832;23;20016;-89
2021/09/21 03:34:06;;;;;;;13.45;6.85;;;7.50;99.90;;;8.26;100.00;101615.38;6205485;23;20012;-89
2021/09/21 03:36:32;;;;;;;10.93;7.57;;;7.50;99.90;;;8.25;100.00;101621.28;6207428;23;20322;-88
2021/09/21 03:39:01;;;;;;;8.75;5.80;;;7.50;99.90;;;8.24;100.00;101617.66;6236866;23;19999;-87
2021/09/21 03:41:27;;;;;;;9.60;6.20;;;7.40;99.90;;;8.18;100.00;101609.78;6235913;23;20005;-88
2021/09/21 03:43:53;;;;;;;8.20;5.65;;;7.40;99.90;;;8.17;100.00;101617.31;6230609;23;20011;-89
2021/09/21 03:46:19;;;;;;;10.13;6.97;;;7.40;99.90;;;8.25;100.00;101630.44;6231171;23;20015;-89
2021/09/21 03:48:46;;;;;;;12.38;6.93;;;7.40;99.90;;;8.19;100.00;101623.34;6233038;23;20013;-87
2021/09/21 03:51:12;;;;;;;9.30;6.47;;;7.50;99.90;;;8.26;100.00;101634.88;6208763;23;20012;-88
2021/09/21 03:53:38;;;;;;;9.60;6.68;;;7.40;99.90;;;8.26;100.00;101636.81;6232560;23;20000;-90
2021/09/21 03:56:04;;;;;;;11.73;6.63;;;7.40;99.90;;;8.27;100.00;101646.81;6232511;23;20382;-89
2021/09/21 03:58:30;;;;;;;12.98;7.05;;;7.40;99.90;;;8.22;100.00;101646.97;6205051;23;20023;-88
2021/09/21 04:00:56;;;;;;;14.93;7.00;;;7.40;99.90;;;8.19;100.00;101648.41;6207851;23;20005;-89
2021/09/21 04:03:22;;;;;;;8.95;5.43;;;7.40;99.90;;;8.21;100.00;101664.78;6232937;23;20008;-87
2021/09/21 04:05:48;;;;;;;12.15;6.50;;;7.40;99.90;;;8.16;100.00;101671.31;6208407;23;20011;-89
2021/09/21 04:08:14;;;;;;;13.32;7.47;;;7.40;99.90;;;8.16;100.00;101678.81;6211238;23;20009;-89
2021/09/21 04:10:39;;;;;;;12.02;7.30;;;7.40;99.90;;;8.17;100.00;101681.31;6213247;23;20009;-87
2021/09/21 04:13:05;;;;;;;11.27;7.03;;;7.40;99.90;;;8.14;100.00;101681.13;6214559;23;20012;-86
2021/09/21 04:15:34;;;;;;;11.55;6.75;;;7.40;99.90;;;8.11;100.00;101692.88;6209902;23;20024;-86
2021/09/21 04:18:04;;;;;;;14.52;7.57;;;7.30;99.90;;;8.04;100.00;101687.75;6207313;23;20001;-90
2021/09/21 04:20:34;;;;;;;11.85;6.88;;;7.30;99.90;;;7.98;100.00;101686.25;6192041;23;20026;-91
2021/09/21 04:23:00;;;;;;;11.50;7.68;;;7.30;99.90;;;7.94;100.00;101683.25;6190963;23;20008;-90
2021/09/21 04:25:31;;;;;;;15.45;8.20;;;7.20;99.90;;;7.94;100.00;101693.56;6236071;22;20005;-87
2021/09/21 04:28:00;;;;;;;12.45;7.50;;;7.20;99.90;;;7.87;100.00;101684.81;6213600;23;20028;-89
2021/09/21 04:30:27;;;;;;;14.55;8.30;;;7.20;99.90;;;7.83;100.00;101687.41;6212399;23;20015;-84
2021/09/21 04:32:59;;;;;;;11.57;7.05;;;7.20;99.90;;;7.82;100.00;101683.00;6237662;22;20035;-90
2021/09/21 04:35:25;;;;;;;13.43;7.80;;;7.10;99.90;;;7.81;100.00;101698.03;6234902;23;20004;-87
2021/09/21 04:37:51;;;;;;;13.32;7.35;;;7.10;99.90;;;7.77;100.00;101699.00;6231678;23;20012;-90
2021/09/21 04:40:17;;;;;;;14.20;7.85;;;7.00;99.90;;;7.76;100.00;101711.25;6197862;23;20054;-92
2021/09/21 04:42:43;;;;;;;15.02;7.90;;;7.00;99.90;;;7.74;100.00;101711.56;6204962;23;20009;-86
2021/09/21 04:45:10;;;;;;;11.52;7.43;;;7.00;99.90;;;7.76;100.00;101712.09;6209742;23;20012;-88
2021/09/21 04:47:36;;;;;;;10.65;5.88;;;6.90;99.90;;;7.73;100.00;101721.06;6239232;22;20028;-89
2021/09/21 04:50:04;;;;;;;10.25;5.80;;;6.90;99.90;;;7.62;100.00;101711.28;6240350;22;20011;-87
2021/09/21 04:52:30;;;;;;;9.95;6.82;;;6.80;99.90;;;7.60;100.00;101730.25;6215034;22;20012;-86
2021/09/21 04:54:59;;;;;;;13.60;7.53;;;6.80;99.90;;;7.53;100.00;101718.72;6214765;23;20072;-86
2021/09/21 04:57:25;;;;;;;13.20;7.78;;;6.70;99.90;;;7.50;100.00;101712.97;6213997;23;20029;-89
2021/09/21 04:59:51;;;;;;;9.88;6.60;;;6.70;99.90;;;7.51;100.00;101711.84;6234693;23;20008;-89
2021/09/21 05:02:17;;;;;;;16.42;8.95;;;6.80;99.90;;;7.53;100.00;101718.72;6209478;23;20008;-88
2021/09/21 05:04:43;;;;;;;14.50;8.35;;;6.80;99.90;;;7.53;100.00;101718.72;6235981;23;20009;-89
2021/09/21 05:07:09;;;;;;;19.38;8.07;;;6.80;99.90;;;7.53;100.00;101723.47;6212260;23;20013;-88
2021/09/21 05:09:35;;;;;;;15.23;8.65;;;6.80;99.90;;;7.46;100.00;101723.06;6238614;22;20012;-87
2021/09/21 05:12:01;;;;;;;15.25;7.40;;;6.70;99.90;;;7.44;100.00;101728.94;6233944;22;20048;-92
2021/09/21 05:14:27;;;;;;;13.82;8.00;;;6.70;99.90;;;7.48;100.00;101751.38;6205235;23;20087;-90
2021/09/21 05:16:53;;;;;;;23.15;10.00;;;6.70;99.90;;;7.45;100.00;101735.31;6231253;23;20020;-89
2021/09/21 05:19:18;;;;;;;18.77;9.32;;;6.80;99.90;;;7.58;100.00;101735.28;6203724;23;20012;-90
2021/09/21 05:22:50;;;;;;;16.55;9.13;;;6.80;99.90;;;7.55;100.00;101719.22;6209682;23;20027;-86
2021/09/21 05:25:20;;;;;;;18.80;9.48;;;6.80;99.90;;;7.70;100.00;101721.69;6235053;22;20023;-88
2021/09/21 05:27:46;;;;;;;18.70;11.38;;;6.90;99.90;;;7.76;100.00;101739.91;6205513;23;20009;-89
2021/09/21 05:30:22;;;;;;;16.58;11.25;;;6.90;99.90;;;7.81;100.00;101739.75;6199751;23;20096;-89
2021/09/21 05:33:30;;;;;;;;;;;;;;;;;;;;;
2021/09/21 05:36:02;;;;;;;20.85;11.55;;;7.00;99.90;;;7.92;100.00;101737.56;6222663;23;20051;-89
2021/09/21 05:39:57;;;;;;;15.57;9.75;;;7.10;99.90;;;8.05;100.00;101741.44;6198235;23;20004;-89
2021/09/21 05:42:40;;;;;;;15.13;9.35;;;7.20;99.90;;;8.00;100.00;101730.44;6180882;23;20470;-88
2021/09/21 05:45:10;;;;;;;14.02;8.60;;;7.20;99.90;;;8.09;100.00;101754.41;6215892;23;20451;-86
2021/09/21 05:47:46;;;;;;;14.68;8.30;;;7.30;99.90;;;8.15;100.00;101744.00;6216275;23;20054;-89
2021/09/21 05:53:08;;;;;;;11.18;6.93;;;7.40;99.90;;;8.30;100.00;101763.13;6201043;23;20060;-88
2021/09/21 05:55:34;;;;;;;12.05;7.65;;;7.40;99.90;;;8.32;100.00;101767.22;6191342;23;20036;-88
2021/09/21 05:58:20;;;;;;;15.43;7.53;;;7.50;99.90;;;8.38;100.00;101779.88;6192872;23;20165;-89
2021/09/21 06:01:06;;;;;;;17.80;8.05;;;7.40;99.90;;;8.39;100.00;101769.56;6194798;23;20004;-89
2021/09/21 06:03:39;;;;;;;14.00;7.95;;;7.50;99.90;;;8.43;100.00;101754.72;6224183;23;20020;-91
2021/09/21 06:06:26;;;;;;;19.10;8.95;;;7.60;99.90;;;8.56;100.00;101753.00;6203233;23;20008;-89
2021/09/21 06:09:03;;;;;;;15.27;9.55;;;7.70;99.90;;;8.74;100.00;101774.22;6195722;23;20008;-89
2021/09/21 06:11:37;;;;;;;13.18;7.95;;;7.90;99.90;;;8.95;100.00;101775.34;6199650;23;20012;-87
2021/09/21 06:14:07;;;;;;;17.58;9.15;;;8.10;99.90;;;9.12;100.00;101768.22;6197319;23;20005;-89
2021/09/21 06:17:13;;;;;;;12.57;7.85;;;8.20;99.90;;;9.20;100.00;101771.03;6196494;23;20008;-89
2021/09/21 06:20:36;;;;;;;11.45;6.97;;;8.20;99.90;;;9.55;100.00;101783.13;6181594;23;20005;-87
2021/09/21 06:28:41;;;;;;;13.02;6.90;;;8.70;99.90;;;10.48;100.00;101781.59;6161264;23;20076;-87
